Time;durP1;ratioP1;P1;durP2;ratioP2;P2;SDS_P1;SDS_P2;PMS_P1;PMS_P2;Temp;Humidity;BMP_temperature;BMP_pressure;BME280_temperature;BME280_humidity;BME280_pressure;Samples;Min_cycle;Max_cycle;Signal;HPM_P1;HPM_P2
2021/09/19 00:37:18;;;;;;;4.84;3.74;;;;;;;14.16;82.53;98982.41;2343734;68;20179;-80
2021/09/19 00:40:27;;;;;;;4.41;4.07;;;;;;;14.14;82.54;98975.53;2359808;68;20103;-80
2021/09/19 00:43:30;;;;;;;4.13;3.83;;;;;;;14.14;82.60;98965.94;2357208;68;20143;-80
2021/09/19 00:46:35;;;;;;;4.25;3.84;;;;;;;14.13;82.56;98963.38;2355658;68;20107;-80
2021/09/19 00:49:55;;;;;;;4.60;4.15;;;;;;;14.13;82.62;98961.63;2356017;68;20115;-80
2021/09/19 00:53:00;;;;;;;6.31;3.80;;;;;;;14.13;82.61;98961.63;2346206;68;20123;-79
2021/09/19 00:56:16;;;;;;;4.64;3.76;;;;;;;14.12;82.49;98972.09;2347759;68;20103;-80
2021/09/19 00:59:20;;;;;;;5.08;3.66;;;;;;;14.12;82.34;98962.50;2345822;68;20103;-79
2021/09/19 01:02:28;;;;;;;3.80;3.50;;;;;;;14.11;82.37;98957.34;2342419;68;981029;-79
2021/09/19 01:05:36;;;;;;;3.91;3.60;;;;;;;14.10;82.44;98958.22;2365239;68;20188;-80
2021/09/19 01:08:42;;;;;;;3.97;3.67;;;;;;;14.09;82.51;98954.75;2362921;68;20103;-80
2021/09/19 01:11:45;;;;;;;3.64;3.41;;;;;;;14.08;82.51;98954.81;2362955;68;20104;-79
2021/09/19 01:14:58;;;;;;;6.99;3.90;;;;;;;14.05;82.49;98952.28;2354680;68;20107;-79
2021/09/19 01:18:17;;;;;;;3.79;3.51;;;;;;;14.04;82.50;98948.81;2339962;66;84875;-79
2021/09/19 01:21:23;;;;;;;4.71;3.78;;;;;;;14.05;82.61;98953.13;2330936;68;20109;-79
2021/09/19 01:24:31;;;;;;;3.86;3.45;;;;;;;14.05;82.55;98957.50;2354670;68;20138;-80
2021/09/19 01:27:33;;;;;;;4.03;3.44;;;;;;;14.05;82.55;98962.72;2333378;68;20117;-80
2021/09/19 01:30:38;;;;;;;4.07;3.58;;;;;;;14.04;82.55;98963.63;2338034;68;20141;-80
2021/09/19 01:33:41;;;;;;;4.85;3.78;;;;;;;14.02;82.53;98960.19;2353817;68;20183;-80
2021/09/19 01:36:50;;;;;;;6.89;3.71;;;;;;;14.01;82.56;98958.47;2331326;69;20137;-79
2021/09/19 01:40:04;;;;;;;4.31;3.40;;;;;;;13.99;82.64;98950.66;2339596;68;20166;-79
2021/09/19 01:43:21;;;;;;;3.36;3.16;;;;;;;14.00;82.57;98943.69;2328475;68;20113;-80
2021/09/19 01:46:28;;;;;;;5.39;3.44;;;;;;;13.97;82.64;98957.66;2343715;68;20168;-80
2021/09/19 01:49:31;;;;;;;3.80;3.34;;;;;;;13.97;82.69;98952.44;2336236;68;20117;-80
2021/09/19 01:52:37;;;;;;;3.85;3.58;;;;;;;13.97;82.78;98952.44;2322483;69;20136;-81
2021/09/19 01:55:41;;;;;;;4.45;3.47;;;;;;;13.93;82.78;98945.59;2349317;68;20104;-79
2021/09/19 01:58:57;;;;;;;6.01;3.04;;;;;;;13.93;82.73;98947.34;2342545;68;20234;-79
2021/09/19 02:01:59;;;;;;;3.74;3.36;;;;;;;13.91;82.68;98937.81;2347132;68;20162;-80
2021/09/19 02:05:32;;;;;;;3.85;3.55;;;;;;;13.90;82.79;98943.06;2330147;68;20184;-80
2021/09/19 02:08:57;;;;;;;3.90;3.55;;;;;;;13.89;82.64;98947.44;2338156;68;20166;-81
2021/09/19 02:12:16;;;;;;;3.34;3.06;;;;;;;13.88;82.61;98939.66;2350948;68;20125;-80
2021/09/19 02:15:20;;;;;;;3.50;3.04;;;;;;;13.87;82.72;98932.72;2352763;68;20119;-79
2021/09/19 02:18:28;;;;;;;3.25;3.00;;;;;;;13.86;82.73;98938.84;2347380;68;20208;-79
2021/09/19 02:21:34;;;;;;;3.03;2.83;;;;;;;13.83;82.80;98934.56;2353081;68;20091;-80
2021/09/19 02:24:37;;;;;;;4.25;3.06;;;;;;;13.82;82.67;98945.00;2346582;68;20172;-79
2021/09/19 02:27:40;;;;;;;3.76;3.34;;;;;;;13.81;82.65;98943.28;2353163;68;20095;-79
2021/09/19 02:30:43;;;;;;;2.94;2.71;;;;;;;13.78;82.69;98943.38;2359721;68;20141;-79
2021/09/19 02:33:46;;;;;;;3.29;2.61;;;;;;;13.77;82.77;98939.03;2352050;68;20129;-80
2021/09/19 02:36:51;;;;;;;3.34;2.71;;;;;;;13.74;82.74;98944.34;2362663;68;20096;-80
2021/09/19 02:40:10;;;;;;;3.26;2.92;;;;;;;13.72;82.73;98948.75;2356921;68;20099;-80
2021/09/19 02:43:16;;;;;;;3.29;2.92;;;;;;;13.70;82.76;98942.72;2355456;68;20143;-80
2021/09/19 02:46:25;;;;;;;4.15;2.96;;;;;;;13.67;82.70;98940.19;2356366;68;20219;-80
2021/09/19 02:49:33;;;;;;;3.21;2.96;;;;;;;13.66;82.69;98946.28;2350495;68;20103;-80
2021/09/19 02:52:43;;;;;;;2.89;2.69;;;;;;;13.64;82.70;98938.47;2359605;68;20336;-79
2021/09/19 02:55:45;;;;;;;3.03;2.83;;;;;;;13.63;82.68;98928.94;2366831;68;20101;-79
2021/09/19 02:58:48;;;;;;;5.78;4.18;;;;;;;13.60;82.71;98927.25;2361352;68;20154;-80
2021/09/19 03:01:52;;;;;;;4.34;3.15;;;;;;;13.58;82.79;98922.97;2348869;68;20099;-80
2021/09/19 03:04:57;;;;;;;3.38;3.08;;;;;;;13.53;83.03;98910.06;2349966;68;20112;-79
2021/09/19 03:08:00;;;;;;;3.91;3.06;;;;;;;13.51;83.09;98905.78;2365013;68;20169;-80
2021/09/19 03:11:04;;;;;;;2.97;2.70;;;;;;;13.50;83.06;98904.06;2365313;68;20107;-81
2021/09/19 03:14:06;;;;;;;3.38;2.76;;;;;;;13.50;83.02;98896.25;2355279;68;20175;-79
2021/09/19 03:17:09;;;;;;;2.90;2.70;;;;;;;13.48;83.01;98891.06;2349725;66;24619;-79
2021/09/19 03:20:14;;;;;;;2.91;2.69;;;;;;;13.49;82.84;98899.75;2350058;68;20148;-80
2021/09/19 03:23:17;;;;;;;2.60;2.40;;;;;;;13.46;82.90;98903.25;2350911;68;20099;-79
2021/09/19 03:26:20;;;;;;;2.89;2.61;;;;;;;13.46;82.92;98902.41;2352810;68;20136;-79
2021/09/19 03:29:22;;;;;;;2.70;2.50;;;;;;;13.44;82.91;98899.81;2347655;68;21141;-80
2021/09/19 03:32:25;;;;;;;3.19;2.24;;;;;;;13.42;82.77;98891.19;2363888;65;23946;-79
2021/09/19 03:35:28;;;;;;;4.81;2.79;;;;;;;13.38;82.75;98886.09;2351561;68;20112;-79
2021/09/19 03:38:32;;;;;;;3.29;2.44;;;;;;;13.35;82.88;98886.16;2350194;68;20144;-79
2021/09/19 03:41:34;;;;;;;2.14;2.04;;;;;;;13.33;82.85;98890.56;2374149;68;20127;-80
2021/09/19 03:44:37;;;;;;;3.61;2.30;;;;;;;13.32;82.97;98896.69;2348944;68;20141;-79
2021/09/19 03:47:40;;;;;;;2.76;2.15;;;;;;;13.30;82.97;98904.53;2347668;65;83561;-79
2021/09/19 03:50:42;;;;;;;2.64;2.10;;;;;;;13.24;83.00;98908.13;2350603;68;20125;-79
2021/09/19 03:53:45;;;;;;;2.22;2.03;;;;;;;13.21;83.02;98905.59;2358159;68;20103;-79
2021/09/19 03:56:48;;;;;;;2.03;1.92;;;;;;;13.18;83.20;98910.88;2353921;68;20144;-79
2021/09/19 03:59:51;;;;;;;3.56;2.53;;;;;;;13.13;83.21;98910.09;2351036;68;20167;-79
2021/09/19 04:02:53;;;;;;;3.34;2.64;;;;;;;13.07;83.58;98914.56;2348655;65;67858;-80
2021/09/19 04:05:56;;;;;;;3.04;2.72;;;;;;;12.99;84.09;98927.78;2360253;68;20174;-79
2021/09/19 04:09:00;;;;;;;3.85;2.97;;;;;;;12.90;84.36;98934.03;2348056;68;20228;-79
2021/09/19 04:12:03;;;;;;;5.05;3.36;;;;;;;12.78;85.28;98929.09;2350684;68;20152;-80
2021/09/19 04:15:06;;;;;;;4.68;3.78;;;;;;;12.69;85.87;98916.25;2346186;68;20196;-80
2021/09/19 04:18:09;;;;;;;6.93;3.88;;;;;;;12.63;86.26;98927.66;2352288;68;20096;-79
2021/09/19 04:21:12;;;;;;;3.29;2.78;;;;;;;12.58;86.57;98924.31;2365253;68;20144;-80
2021/09/19 04:24:14;;;;;;;3.36;2.76;;;;;;;12.55;86.76;98921.72;2340253;68;20111;-80
2021/09/19 04:27:17;;;;;;;3.61;2.25;;;;;;;12.59;86.58;98922.56;2341495;68;20194;-79
2021/09/19 04:30:20;;;;;;;6.29;2.14;;;;;;;12.64;86.32;98924.16;2354197;68;20116;-80
2021/09/19 04:33:22;;;;;;;3.10;2.39;;;;;;;12.67;86.04;98918.88;2347002;68;20092;-79
2021/09/19 04:36:25;;;;;;;2.96;2.49;;;;;;;12.68;85.75;98920.59;2351021;68;20103;-79
2021/09/19 04:39:28;;;;;;;4.35;3.21;;;;;;;12.67;85.88;98929.31;2360043;68;20224;-79
2021/09/19 04:42:30;;;;;;;3.22;2.84;;;;;;;12.59;86.31;98927.75;2349059;68;20125;-79
2021/09/19 04:45:33;;;;;;;4.85;2.95;;;;;;;12.50;86.50;98922.72;2348222;68;20233;-80
2021/09/19 04:48:36;;;;;;;5.19;2.59;;;;;;;12.44;86.98;98931.53;2366416;68;20103;-80
2021/09/19 04:51:38;;;;;;;3.81;2.70;;;;;;;12.43;86.96;98929.81;2351335;68;20103;-79
2021/09/19 04:54:41;;;;;;;3.63;2.40;;;;;;;12.46;87.03;98934.94;2352679;68;20269;-79
2021/09/19 04:57:43;;;;;;;4.85;2.51;;;;;;;12.48;86.83;98927.97;2354311;68;20107;-80
2021/09/19 05:00:46;;;;;;;3.84;2.25;;;;;;;12.52;86.58;98933.97;2349299;68;20223;-79
2021/09/19 05:03:49;;;;;;;8.15;2.80;;;;;;;12.52;86.51;98931.34;2349631;68;20121;-78
2021/09/19 05:06:51;;;;;;;6.54;2.76;;;;;;;12.45;86.78;98938.44;2357532;68;20154;-81
2021/09/19 05:09:54;;;;;;;4.06;2.91;;;;;;;12.42;87.01;98935.91;2344943;68;20136;-79
2021/09/19 05:12:56;;;;;;;2.59;2.00;;;;;;;12.34;87.19;98941.22;2359117;68;20096;-79
2021/09/19 05:15:59;;;;;;;2.61;2.30;;;;;;;12.34;87.02;98948.19;2361844;68;20121;-79
2021/09/19 05:19:02;;;;;;;2.26;1.89;;;;;;;12.32;86.89;98945.63;2356809;68;20165;-80
2021/09/19 05:22:05;;;;;;;2.71;1.76;;;;;;;12.31;86.81;98949.09;2353446;68;20100;-78
2021/09/19 05:25:08;;;;;;;3.17;1.49;;;;;;;12.35;86.83;98936.88;2350131;68;20188;-79
2021/09/19 05:28:10;;;;;;;2.66;1.41;;;;;;;12.37;86.57;98935.97;2353807;68;20103;-80
2021/09/19 05:31:13;;;;;;;2.31;2.11;;;;;;;12.44;86.13;98941.94;2356632;68;20152;-80
2021/09/19 05:34:16;;;;;;;2.91;1.40;;;;;;;12.50;85.76;98948.75;2352890;68;20125;-79
2021/09/19 05:37:19;;;;;;;2.19;1.10;;;;;;;12.56;85.54;98939.06;2375433;68;20100;-79
2021/09/19 05:40:21;;;;;;;3.85;1.41;;;;;;;12.62;85.23;98949.38;2347219;68;20104;-79
2021/09/19 05:43:24;;;;;;;3.34;1.27;;;;;;;12.68;84.89;98943.19;2355286;68;20095;-80
2021/09/19 05:46:27;;;;;;;1.26;1.16;;;;;;;12.76;84.63;98949.13;2354737;68;20211;-79
2021/09/19 05:49:54;;;;;;;4.24;1.45;;;;;;;12.83;84.42;98947.22;2346261;68;20103;-80
2021/09/19 05:53:52;;;;;;;1.38;1.20;;;;;;;12.88;84.19;98954.06;2341111;68;20099;-82
2021/09/19 05:58:12;;;;;;;2.89;1.06;;;;;;;12.93;84.01;98949.63;2368545;68;20166;-81
2021/09/19 12:53:40;;;;;;;0.82;0.80;;;;;;;21.05;57.89;98996.56;2318988;68;20147;-81
2021/09/19 20:58:34;;;;;;;2.83;1.20;;;;;;;15.63;88.22;99240.91;2353736;68;20131;-80
2021/09/19 21:01:37;;;;;;;2.59;1.04;;;;;;;15.68;88.36;99243.41;2348245;68;20182;-79
2021/09/19 21:04:39;;;;;;;1.24;1.15;;;;;;;15.70;88.27;99236.34;2352062;68;20125;-79
2021/09/19 21:07:42;;;;;;;1.59;1.21;;;;;;;15.71;88.40;99252.03;2350760;68;20227;-80
2021/09/19 21:10:47;;;;;;;2.45;1.31;;;;;;;15.70;89.12;99246.81;2355051;68;20103;-79
2021/09/19 21:13:49;;;;;;;2.51;1.19;;;;;;;15.71;89.15;99248.53;2355155;68;20148;-79
2021/09/19 21:16:52;;;;;;;1.60;1.25;;;;;;;15.70;88.82;99249.44;2350188;68;20196;-79
2021/09/19 21:19:55;;;;;;;1.30;1.20;;;;;;;15.61;88.67;99254.91;2340934;68;20108;-79
2021/09/19 21:22:58;;;;;;;1.54;1.25;;;;;;;15.56;88.80;99247.16;2357541;68;20137;-81
2021/09/19 21:26:01;;;;;;;2.15;1.17;;;;;;;15.49;89.20;99252.63;2343286;68;20095;-79
2021/09/19 21:29:07;;;;;;;1.39;1.29;;;;;;;15.43;89.53;99256.22;2350129;68;20177;-79
2021/09/19 21:32:10;;;;;;;2.20;1.30;;;;;;;15.40;89.72;99261.53;2355486;65;41497;-79
2021/09/19 21:35:14;;;;;;;1.13;1.00;;;;;;;15.42;89.98;99259.75;2366725;68;20182;-79
2021/09/19 21:38:16;;;;;;;1.48;1.15;;;;;;;15.40;89.87;99264.16;2359180;68;20125;-79
2021/09/19 21:41:19;;;;;;;1.19;1.10;;;;;;;15.44;89.86;99263.22;2358592;68;20107;-80
2021/09/19 21:44:22;;;;;;;1.61;1.19;;;;;;;15.47;89.98;99265.75;2354037;68;20099;-80
2021/09/19 21:47:25;;;;;;;1.27;1.17;;;;;;;15.54;89.69;99266.44;2353713;66;104603;-79
2021/09/19 21:50:29;;;;;;;1.40;1.15;;;;;;;15.58;89.71;99271.53;2343314;68;20108;-79
2021/09/19 21:53:31;;;;;;;2.30;1.27;;;;;;;15.59;89.96;99272.41;2347866;68;20103;-79
2021/09/19 21:56:35;;;;;;;1.52;1.14;;;;;;;15.57;89.65;99274.19;2360580;68;20125;-79
2021/09/19 21:59:44;;;;;;;1.27;1.17;;;;;;;15.56;89.34;99275.94;2349373;68;20100;-79
2021/09/19 22:02:56;;;;;;;2.50;1.06;;;;;;;15.55;89.47;99279.47;2348768;65;196540;-80
2021/09/19 22:36:49;;;;;;;2.56;1.35;;;;;;;15.40;91.19;99287.72;2310529;68;20160;-83
2021/09/19 22:40:22;;;;;;;2.22;1.74;;;;;;;15.40;91.48;99287.72;2340406;68;20128;-82
2021/09/19 22:43:42;;;;;;;2.78;1.65;;;;;;;15.40;91.76;99282.47;2340249;68;20129;-81
2021/09/19 22:46:46;;;;;;;1.77;1.63;;;;;;;15.40;91.83;99285.09;2334412;68;20157;-81
2021/09/19 22:50:22;;;;;;;3.81;1.95;;;;;;;15.41;91.88;99284.19;2342935;68;20092;-81
2021/09/19 22:53:37;;;;;;;2.36;2.19;;;;;;;15.36;91.62;99286.94;2336062;68;20144;-81
2021/09/19 22:56:40;;;;;;;2.09;1.89;;;;;;;15.33;91.52;99287.03;2346987;68;20104;-81
2021/09/19 23:00:32;;;;;;;3.36;1.83;;;;;;;15.33;91.57;99275.69;2330858;68;20126;-80
2021/09/19 23:04:07;;;;;;;2.17;1.98;;;;;;;15.35;91.61;99282.59;2343307;68;20130;-82
2021/09/19 23:11:00;;;;;;;2.35;1.67;;;;;;;15.24;92.13;99284.63;2340036;68;20110;-81
2021/09/19 23:18:26;;;;;;;1.93;1.70;;;;;;;15.27;92.76;99281.94;2338674;68;1005477;-81
2021/09/19 23:22:17;;;;;;;1.89;1.79;;;;;;;15.32;92.61;99281.81;2352330;68;20817;-81
2021/09/19 23:25:44;;;;;;;3.69;1.83;;;;;;;15.37;92.52;99285.19;2357894;68;20202;-81
2021/09/19 23:29:05;;;;;;;2.45;1.96;;;;;;;15.41;92.55;99284.19;2343064;68;20100;-81
